createdAt,value
2018-12-02T00:00:36.349Z,998.61
2018-12-02T00:01:45.269Z,998.62
2018-12-02T00:02:53.937Z,998.58
2018-12-02T00:04:02.609Z,998.58
2018-12-02T00:05:11.284Z,998.56
2018-12-02T00:06:19.966Z,998.56
2018-12-02T00:07:28.890Z,998.52
2018-12-02T00:08:37.562Z,998.5
2018-12-02T00:09:46.222Z,998.47
2018-12-02T00:10:54.897Z,998.46
2018-12-02T00:12:03.571Z,998.46
2018-12-02T00:13:12.248Z,998.44
2018-12-02T00:14:20.917Z,998.49
2018-12-02T00:15:29.594Z,998.45
2018-12-02T00:16:38.263Z,998.48
2018-12-02T00:17:46.927Z,998.5
2018-12-02T00:18:55.609Z,998.45
2018-12-02T00:20:04.295Z,998.41
2018-12-02T00:21:12.973Z,998.38
2018-12-02T00:22:21.639Z,998.39
2018-12-02T00:23:30.306Z,998.32
2018-12-02T00:24:38.989Z,998.33
2018-12-02T00:25:47.913Z,998.36
2018-12-02T00:26:56.591Z,998.33
2018-12-02T00:28:05.250Z,998.33
2018-12-02T00:29:13.931Z,998.31
2018-12-02T00:30:22.594Z,998.29
2018-12-02T00:31:31.269Z,998.23
2018-12-02T00:32:39.931Z,998.3
2018-12-02T00:33:48.606Z,998.33
2018-12-02T00:34:57.273Z,998.33
2018-12-02T00:36:05.944Z,998.33
2018-12-02T00:37:14.607Z,998.37
2018-12-02T00:38:23.796Z,998.32
2018-12-02T00:39:32.470Z,998.33
2018-12-02T00:40:41.155Z,998.35
2018-12-02T00:41:49.824Z,998.32
2018-12-02T00:42:58.745Z,998.29
2018-12-02T00:44:07.423Z,998.3
2018-12-02T00:45:16.088Z,998.29
2018-12-02T00:46:24.778Z,998.26
2018-12-02T00:47:33.445Z,998.24
2018-12-02T00:48:42.125Z,998.23
2018-12-02T00:49:50.791Z,998.21
2018-12-02T00:50:59.467Z,998.16
2018-12-02T00:52:08.135Z,998.13
2018-12-02T00:53:16.808Z,998.17
2018-12-02T00:54:25.471Z,998.12
2018-12-02T00:55:34.153Z,998.16
2018-12-02T00:56:42.832Z,998.08
2018-12-02T00:57:51.498Z,998.07
2018-12-02T00:59:00.181Z,998.04
2018-12-02T01:00:08.853Z,998.03
2018-12-02T01:01:17.547Z,998.04
2018-12-02T01:02:26.219Z,998.05
2018-12-02T01:03:34.897Z,998.02
2018-12-02T01:04:43.817Z,997.99
2018-12-02T01:05:52.501Z,997.95
2018-12-02T01:07:01.171Z,997.99
2018-12-02T01:08:10.108Z,997.97
2018-12-02T01:09:18.769Z,997.93
2018-12-02T01:10:27.447Z,997.95
2018-12-02T01:11:36.118Z,997.86
2018-12-02T01:12:44.792Z,997.81
2018-12-02T01:13:53.450Z,997.88
2018-12-02T01:15:02.121Z,997.79
2018-12-02T01:16:11.049Z,997.82
2018-12-02T01:17:19.720Z,997.78
2018-12-02T01:18:28.387Z,997.76
2018-12-02T01:19:37.052Z,997.73
2018-12-02T01:20:45.735Z,997.7
2018-12-02T01:21:54.410Z,997.65
2018-12-02T01:23:03.080Z,997.63
2018-12-02T01:24:11.748Z,997.61
2018-12-02T01:25:20.492Z,997.54
2018-12-02T01:26:29.159Z,997.51
2018-12-02T01:27:37.831Z,997.51
2018-12-02T01:28:46.824Z,997.53
2018-12-02T01:29:55.791Z,997.49
2018-12-02T01:31:04.853Z,997.38
2018-12-02T01:32:14.005Z,997.4
2018-12-02T01:33:22.855Z,997.39
2018-12-02T01:34:31.549Z,997.39
2018-12-02T01:35:40.219Z,997.34
2018-12-02T01:36:48.938Z,997.37
2018-12-02T01:37:58.602Z,997.36
2018-12-02T01:39:07.581Z,997.34
2018-12-02T01:40:16.248Z,997.38
2018-12-02T01:41:25.228Z,997.29
2018-12-02T01:42:33.906Z,997.31
2018-12-02T01:43:42.825Z,997.25
2018-12-02T01:44:51.490Z,997.23
2018-12-02T01:46:00.423Z,997.26
2018-12-02T01:47:09.102Z,997.21
2018-12-02T01:48:17.770Z,997.21
2018-12-02T01:49:26.494Z,997.15
2018-12-02T01:50:35.427Z,997.15
2018-12-02T01:51:44.106Z,997.13
2018-12-02T01:52:52.777Z,997.13
2018-12-02T01:54:01.960Z,997.1
2018-12-02T01:55:10.637Z,997.06
2018-12-02T01:56:19.304Z,997.02
2018-12-02T01:57:27.973Z,997.08
2018-12-02T01:58:36.647Z,997.09
2018-12-02T01:59:45.329Z,997.03
2018-12-02T02:00:54.247Z,997.01
2018-12-02T02:02:02.923Z,997.03
2018-12-02T02:03:11.594Z,996.97
2018-12-02T02:04:20.279Z,997.01
2018-12-02T02:05:28.947Z,996.99
2018-12-02T02:06:37.622Z,996.91
2018-12-02T02:07:46.293Z,996.96
2018-12-02T02:08:55.479Z,996.83
2018-12-02T02:10:04.141Z,996.84
2018-12-02T02:11:12.806Z,996.82
2018-12-02T02:12:21.747Z,996.77
2018-12-02T02:13:30.418Z,996.78
2018-12-02T02:14:39.091Z,996.8
2018-12-02T02:15:47.759Z,996.78
2018-12-02T02:16:56.436Z,996.76
2018-12-02T02:18:05.144Z,996.82
2018-12-02T02:19:13.842Z,996.74
2018-12-02T02:20:22.511Z,996.75
2018-12-02T02:21:31.189Z,996.67
2018-12-02T02:22:39.849Z,996.63
2018-12-02T02:23:49.783Z,996.62
2018-12-02T02:24:58.503Z,996.63
2018-12-02T02:26:07.184Z,996.55
2018-12-02T02:27:15.843Z,996.53
2018-12-02T02:28:24.519Z,996.51
2018-12-02T02:29:33.206Z,996.53
2018-12-02T02:30:42.134Z,996.46
2018-12-02T02:31:50.808Z,996.46
2018-12-02T02:32:59.733Z,996.43
2018-12-02T02:34:08.672Z,996.41
2018-12-02T02:35:17.347Z,996.39
2018-12-02T02:36:26.066Z,996.37
2018-12-02T02:37:34.737Z,996.39
2018-12-02T02:38:43.421Z,996.36
2018-12-02T02:39:52.345Z,996.32
2018-12-02T02:41:01.283Z,996.26
2018-12-02T02:42:10.200Z,996.32
2018-12-02T02:43:18.903Z,996.39
2018-12-02T02:44:27.574Z,996.24
2018-12-02T02:45:36.261Z,996.26
2018-12-02T02:46:44.928Z,996.22
2018-12-02T02:47:53.604Z,996.18
2018-12-02T02:49:02.530Z,996.19
2018-12-02T02:50:11.205Z,996.22
2018-12-02T02:51:19.886Z,996.27
2018-12-02T02:52:28.562Z,996.29
2018-12-02T02:53:37.248Z,996.23
2018-12-02T02:54:46.166Z,996.21
2018-12-02T02:55:54.853Z,996.19
2018-12-02T02:57:03.803Z,996.22
2018-12-02T02:58:12.484Z,996.16
2018-12-02T02:59:21.157Z,996.12
2018-12-02T03:00:29.839Z,996.06
2018-12-02T03:01:38.509Z,996.01
2018-12-02T03:02:47.181Z,996
2018-12-02T03:03:55.867Z,995.99
2018-12-02T03:05:04.581Z,995.99
2018-12-02T03:06:13.267Z,995.96
2018-12-02T03:07:21.958Z,995.98
2018-12-02T03:08:30.897Z,995.89
2018-12-02T03:09:40.094Z,995.86
2018-12-02T03:10:48.771Z,995.88
2018-12-02T03:11:57.695Z,995.95
2018-12-02T03:13:06.373Z,995.93
2018-12-02T03:14:15.038Z,995.93
2018-12-02T03:15:23.983Z,995.89
2018-12-02T03:16:32.659Z,995.87
2018-12-02T03:17:41.600Z,995.92
2018-12-02T03:18:50.812Z,995.9
2018-12-02T03:19:59.496Z,995.83
2018-12-02T03:21:08.688Z,995.88
2018-12-02T03:22:17.371Z,995.91
2018-12-02T03:23:26.045Z,995.87
2018-12-02T03:24:34.734Z,995.85
2018-12-02T03:25:43.408Z,995.88
2018-12-02T03:26:52.078Z,995.87
2018-12-02T03:28:00.762Z,995.9
2018-12-02T03:29:09.472Z,995.9
2018-12-02T03:30:18.148Z,995.9
2018-12-02T03:31:26.978Z,995.94
2018-12-02T03:32:35.954Z,995.91
2018-12-02T03:33:45.162Z,995.91
2018-12-02T03:34:54.114Z,995.9
2018-12-02T03:36:03.043Z,995.87
2018-12-02T03:37:11.977Z,995.87
2018-12-02T03:38:20.938Z,995.84
2018-12-02T03:39:29.629Z,995.84
2018-12-02T03:40:38.303Z,995.83
2018-12-02T03:41:46.981Z,995.81
2018-12-02T03:42:55.689Z,995.81
2018-12-02T03:44:04.370Z,995.8
2018-12-02T03:45:13.043Z,995.83
2018-12-02T03:46:21.721Z,995.78
2018-12-02T03:47:30.416Z,995.75
2018-12-02T03:48:39.094Z,995.73
2018-12-02T03:49:48.043Z,995.75
2018-12-02T03:50:56.725Z,995.7
2018-12-02T03:52:05.649Z,995.7
2018-12-02T03:53:14.320Z,995.7
2018-12-02T03:54:22.998Z,995.67
2018-12-02T03:55:31.663Z,995.64
2018-12-02T03:56:40.336Z,995.66
2018-12-02T03:57:49.011Z,995.66
2018-12-02T03:58:57.952Z,995.68
2018-12-02T04:00:06.639Z,995.55
2018-12-02T04:01:15.320Z,995.64
2018-12-02T04:02:23.993Z,995.61
2018-12-02T04:03:32.663Z,995.58
2018-12-02T04:04:41.353Z,995.59
2018-12-02T04:05:50.031Z,995.57
2018-12-02T04:06:59.026Z,995.46
2018-12-02T04:08:07.694Z,995.47
2018-12-02T04:09:16.374Z,995.42
2018-12-02T04:10:25.047Z,995.45
2018-12-02T04:11:33.730Z,995.39
2018-12-02T04:12:42.705Z,995.41
2018-12-02T04:13:51.640Z,995.37
2018-12-02T04:15:00.312Z,995.35
2018-12-02T04:16:08.983Z,995.32
2018-12-02T04:17:17.669Z,995.34
2018-12-02T04:18:26.339Z,995.29
2018-12-02T04:19:35.016Z,995.24
2018-12-02T04:20:43.684Z,995.2
2018-12-02T04:21:52.367Z,995.18
2018-12-02T04:23:01.039Z,995.13
2018-12-02T04:24:09.962Z,995.2
2018-12-02T04:25:18.904Z,995.14
2018-12-02T04:26:28.347Z,995.12
2018-12-02T04:27:37.295Z,995.07
2018-12-02T04:28:45.970Z,995.05
2018-12-02T04:29:54.647Z,994.98
2018-12-02T04:31:03.576Z,995
2018-12-02T04:32:12.517Z,994.97
2018-12-02T04:33:21.445Z,994.95
2018-12-02T04:34:30.134Z,994.89
2018-12-02T04:35:38.802Z,994.92
2018-12-02T04:36:47.505Z,994.95
2018-12-02T04:37:56.182Z,994.93
2018-12-02T04:39:04.853Z,994.96
2018-12-02T04:40:13.531Z,994.94
2018-12-02T04:41:22.203Z,994.9
2018-12-02T04:42:30.893Z,994.87
2018-12-02T04:43:39.842Z,994.85
2018-12-02T04:44:48.537Z,994.82
2018-12-02T04:45:57.467Z,994.82
2018-12-02T04:47:06.161Z,994.81
2018-12-02T04:48:14.838Z,994.79
2018-12-02T04:49:23.512Z,994.78
2018-12-02T04:50:32.181Z,994.81
2018-12-02T04:51:40.859Z,994.77
2018-12-02T04:52:49.525Z,994.79
2018-12-02T04:53:58.211Z,994.77
2018-12-02T04:55:06.892Z,994.8
2018-12-02T04:56:15.824Z,994.77
2018-12-02T04:57:24.499Z,994.7
2018-12-02T04:58:33.430Z,994.71
2018-12-02T04:59:42.104Z,994.69
2018-12-02T05:00:51.808Z,994.67
2018-12-02T05:02:00.500Z,994.68
2018-12-02T05:03:09.158Z,994.65
2018-12-02T05:04:17.838Z,994.61
2018-12-02T05:05:26.521Z,994.7
2018-12-02T05:06:35.193Z,994.63
2018-12-02T05:07:44.148Z,994.66
2018-12-02T05:08:52.859Z,994.58
2018-12-02T05:10:01.566Z,994.61
2018-12-02T05:11:10.265Z,994.59
2018-12-02T05:12:19.181Z,994.53
2018-12-02T05:13:27.866Z,994.55
2018-12-02T05:14:36.559Z,994.56
2018-12-02T05:15:45.232Z,994.56
2018-12-02T05:16:54.166Z,994.58
2018-12-02T05:18:03.089Z,994.54
2018-12-02T05:19:11.766Z,994.49
2018-12-02T05:20:20.690Z,994.42
2018-12-02T05:21:29.369Z,994.4
2018-12-02T05:22:38.035Z,994.41
2018-12-02T05:23:46.713Z,994.39
2018-12-02T05:24:55.633Z,994.36
2018-12-02T05:26:04.310Z,994.34
2018-12-02T05:27:12.974Z,994.35
2018-12-02T05:28:21.649Z,994.34
2018-12-02T05:29:30.333Z,994.35
2018-12-02T05:30:39.019Z,994.32
2018-12-02T05:31:47.708Z,994.3
2018-12-02T05:32:56.380Z,994.32
2018-12-02T05:34:05.058Z,994.25
2018-12-02T05:35:13.731Z,994.29
2018-12-02T05:36:22.673Z,994.26
2018-12-02T05:37:31.342Z,994.25
2018-12-02T05:38:40.019Z,994.27
2018-12-02T05:39:48.687Z,994.25
2018-12-02T05:40:57.363Z,994.2
2018-12-02T05:42:06.031Z,994.2
2018-12-02T05:43:14.966Z,994.18
2018-12-02T05:44:23.626Z,994.17
2018-12-02T05:45:32.299Z,994.18
2018-12-02T05:46:40.972Z,994.13
2018-12-02T05:47:49.647Z,994.14
2018-12-02T05:48:58.309Z,994.12
2018-12-02T05:50:07.237Z,994.12
2018-12-02T05:51:15.909Z,994.11
2018-12-02T05:52:24.582Z,994.11
2018-12-02T05:53:33.252Z,994.1
2018-12-02T05:54:41.915Z,994.11
2018-12-02T05:55:50.593Z,994.11
2018-12-02T05:56:59.258Z,994.1
2018-12-02T05:58:07.986Z,994.08
2018-12-02T05:59:16.648Z,994.08
2018-12-02T06:00:25.323Z,994.09
2018-12-02T06:01:33.988Z,994.06
2018-12-02T06:02:42.670Z,994.02
2018-12-02T06:03:51.338Z,994.02
2018-12-02T06:05:00.264Z,994
2018-12-02T06:06:08.928Z,994.05
2018-12-02T06:07:17.615Z,993.99
2018-12-02T06:08:26.280Z,993.94
2018-12-02T06:09:34.945Z,993.95
2018-12-02T06:10:43.624Z,993.96
2018-12-02T06:11:52.545Z,993.92
2018-12-02T06:13:01.221Z,993.92
2018-12-02T06:14:09.885Z,993.9
2018-12-02T06:15:18.562Z,993.92
2018-12-02T06:16:27.231Z,993.88
2018-12-02T06:17:35.910Z,993.83
2018-12-02T06:18:44.581Z,993.81
2018-12-02T06:19:53.259Z,993.79
2018-12-02T06:21:07.106Z,993.78
2018-12-02T06:22:16.053Z,993.74
2018-12-02T06:23:24.721Z,993.72
2018-12-02T06:24:33.443Z,993.68
2018-12-02T06:25:46.407Z,993.64
2018-12-02T06:26:55.500Z,993.62
2018-12-02T06:28:04.184Z,993.59
2018-12-02T06:29:12.862Z,993.59
2018-12-02T06:30:21.541Z,993.59
2018-12-02T06:31:30.518Z,993.58
2018-12-02T06:32:39.199Z,993.57
2018-12-02T06:33:47.876Z,993.57
2018-12-02T06:34:56.562Z,993.58
2018-12-02T06:36:05.482Z,993.56
2018-12-02T06:37:14.158Z,993.54
2018-12-02T06:38:22.835Z,993.56
2018-12-02T06:39:31.514Z,993.53
2018-12-02T06:40:40.184Z,993.51
2018-12-02T06:41:48.855Z,993.5
2018-12-02T06:42:57.527Z,993.51
2018-12-02T06:44:06.218Z,993.48
2018-12-02T06:45:14.882Z,993.44
2018-12-02T06:46:23.550Z,993.46
2018-12-02T06:47:32.215Z,993.45
2018-12-02T06:48:40.888Z,993.44
2018-12-02T06:49:49.817Z,993.47
2018-12-02T06:50:58.487Z,993.48
2018-12-02T06:52:07.157Z,993.47
2018-12-02T06:53:15.818Z,993.48
2018-12-02T06:54:24.508Z,993.45
2018-12-02T06:55:33.435Z,993.49
2018-12-02T06:56:42.119Z,993.49
2018-12-02T06:57:51.028Z,993.46
2018-12-02T06:58:59.712Z,993.48
2018-12-02T07:00:08.385Z,993.5
2018-12-02T07:01:17.054Z,993.49
2018-12-02T07:02:25.731Z,993.48
2018-12-02T07:03:34.401Z,993.52
2018-12-02T07:04:43.081Z,993.45
2018-12-02T07:05:51.752Z,993.43
2018-12-02T07:07:00.426Z,993.43
2018-12-02T07:08:09.346Z,993.41
2018-12-02T07:09:18.838Z,993.43
2018-12-02T07:10:27.657Z,993.45
2018-12-02T07:11:36.426Z,993.47
2018-12-02T07:12:45.361Z,993.42
2018-12-02T07:13:54.169Z,993.35
2018-12-02T07:15:03.132Z,993.41
2018-12-02T07:16:12.715Z,993.36
2018-12-02T07:17:21.384Z,993.36
2018-12-02T07:18:30.058Z,993.32
2018-12-02T07:19:38.733Z,993.3
2018-12-02T07:20:47.701Z,993.27
2018-12-02T07:21:56.726Z,993.26
2018-12-02T07:23:05.485Z,993.25
2018-12-02T07:24:14.278Z,993.24
2018-12-02T07:25:22.967Z,993.22
2018-12-02T07:26:31.640Z,993.2
2018-12-02T07:27:40.311Z,993.17
2018-12-02T07:28:48.982Z,993.18
2018-12-02T07:29:57.648Z,993.15
2018-12-02T07:31:06.326Z,993.14
2018-12-02T07:32:14.998Z,993.14
2018-12-02T07:33:23.668Z,993.15
2018-12-02T07:34:32.334Z,993.14
2018-12-02T07:35:41.018Z,993.15
2018-12-02T07:36:49.740Z,993.15
2018-12-02T07:37:58.410Z,993.16
2018-12-02T07:39:07.079Z,993.13
2018-12-02T07:40:15.750Z,993.14
2018-12-02T07:41:24.441Z,993.13
2018-12-02T07:42:33.116Z,993.11
2018-12-02T07:43:41.789Z,993.16
2018-12-02T07:44:50.460Z,993.14
2018-12-02T07:45:59.142Z,993.03
2018-12-02T07:47:07.814Z,993.04
2018-12-02T07:48:16.492Z,993.11
2018-12-02T07:49:25.163Z,993.05
2018-12-02T07:50:33.836Z,993.02
2018-12-02T07:51:42.551Z,993.02
2018-12-02T07:52:51.499Z,992.99
2018-12-02T07:54:00.422Z,993.04
2018-12-02T07:55:09.106Z,992.97
2018-12-02T07:56:18.026Z,992.98
2018-12-02T07:57:26.955Z,992.96
2018-12-02T07:58:35.619Z,993.01
2018-12-02T07:59:44.288Z,993.03
2018-12-02T08:00:52.949Z,992.87
2018-12-02T08:02:01.641Z,992.95
2018-12-02T08:03:10.318Z,992.94
2018-12-02T08:04:18.994Z,992.92
2018-12-02T08:05:27.681Z,992.84
2018-12-02T08:06:36.361Z,992.83
2018-12-02T08:07:45.035Z,992.82
2018-12-02T08:08:53.708Z,992.84
2018-12-02T08:10:02.639Z,992.77
2018-12-02T08:11:11.323Z,992.78
2018-12-02T08:12:20.001Z,992.75
2018-12-02T08:13:28.677Z,992.76
2018-12-02T08:14:37.349Z,992.74
2018-12-02T08:15:46.026Z,992.72
2018-12-02T08:16:54.698Z,992.68
2018-12-02T08:18:03.375Z,992.72
2018-12-02T08:19:12.044Z,992.71
2018-12-02T08:20:20.974Z,992.66
2018-12-02T08:21:29.653Z,992.67
2018-12-02T08:22:38.328Z,992.67
2018-12-02T08:23:51.700Z,992.64
2018-12-02T08:25:00.369Z,992.67
2018-12-02T08:26:09.051Z,992.6
2018-12-02T08:27:17.725Z,992.62
2018-12-02T08:28:26.658Z,992.62
2018-12-02T08:29:35.329Z,992.66
2018-12-02T08:30:44.009Z,992.62
2018-12-02T08:31:52.933Z,992.64
2018-12-02T08:33:01.606Z,992.56
2018-12-02T08:34:11.180Z,992.63
2018-12-02T08:35:19.872Z,992.56
2018-12-02T08:36:28.796Z,992.57
2018-12-02T08:37:37.472Z,992.57
2018-12-02T08:38:46.166Z,992.63
2018-12-02T08:39:55.080Z,992.66
2018-12-02T08:41:03.757Z,992.64
2018-12-02T08:42:12.428Z,992.64
2018-12-02T08:43:21.103Z,992.65
2018-12-02T08:44:30.028Z,992.59
2018-12-02T08:45:38.699Z,992.61
2018-12-02T08:46:47.383Z,992.6
2018-12-02T08:47:56.060Z,992.6
2018-12-02T08:49:04.728Z,992.63
2018-12-02T08:50:13.666Z,992.64
2018-12-02T08:51:22.339Z,992.61
2018-12-02T08:52:31.297Z,992.66
2018-12-02T08:53:39.973Z,992.59
2018-12-02T08:54:48.647Z,992.55
2018-12-02T08:55:57.331Z,992.55
2018-12-02T08:57:06.321Z,992.58
2018-12-02T08:58:15.045Z,992.53
2018-12-02T08:59:23.733Z,992.57
2018-12-02T09:00:32.409Z,992.51
2018-12-02T09:01:41.345Z,992.52
2018-12-02T09:02:50.028Z,992.51
2018-12-02T09:03:58.703Z,992.5
2018-12-02T09:05:07.376Z,992.5
2018-12-02T09:06:16.310Z,992.49
2018-12-02T09:07:24.997Z,992.47
2018-12-02T09:08:33.664Z,992.48
2018-12-02T09:09:42.341Z,992.43
2018-12-02T09:10:51.003Z,992.45
2018-12-02T09:11:59.690Z,992.37
2018-12-02T09:13:08.629Z,992.42
2018-12-02T09:14:17.303Z,992.41
2018-12-02T09:15:25.989Z,992.45
2018-12-02T09:16:34.912Z,992.38
2018-12-02T09:17:43.597Z,992.44
2018-12-02T09:18:52.273Z,992.42
2018-12-02T09:20:00.958Z,992.43
2018-12-02T09:21:09.627Z,992.45
2018-12-02T09:22:18.302Z,992.39
2018-12-02T09:23:26.984Z,992.36
2018-12-02T09:24:35.677Z,992.41
2018-12-02T09:25:44.339Z,992.39
2018-12-02T09:26:53.015Z,992.39
2018-12-02T09:28:01.684Z,992.42
2018-12-02T09:29:10.369Z,992.41
2018-12-02T09:30:19.071Z,992.41
2018-12-02T09:31:27.747Z,992.39
2018-12-02T09:32:36.419Z,992.38
2018-12-02T09:33:45.094Z,992.42
2018-12-02T09:34:53.778Z,992.44
2018-12-02T09:36:02.451Z,992.41
2018-12-02T09:37:11.131Z,992.47
2018-12-02T09:38:19.794Z,992.46
2018-12-02T09:39:28.473Z,992.45
2018-12-02T09:40:37.144Z,992.43
2018-12-02T09:41:45.820Z,992.43
2018-12-02T09:42:54.485Z,992.39
2018-12-02T09:44:03.422Z,992.39
2018-12-02T09:45:12.092Z,992.37
2018-12-02T09:46:20.768Z,992.38
2018-12-02T09:47:29.442Z,992.37
2018-12-02T09:48:38.120Z,992.36
2018-12-02T09:49:46.802Z,992.33
2018-12-02T09:50:55.478Z,992.35
2018-12-02T09:52:04.172Z,992.31
2018-12-02T09:53:12.842Z,992.3
2018-12-02T09:54:23.389Z,992.34
2018-12-02T09:55:32.148Z,992.31
2018-12-02T09:56:40.826Z,992.29
2018-12-02T09:57:49.747Z,992.3
2018-12-02T09:58:58.426Z,992.28
2018-12-02T10:00:07.098Z,992.31
2018-12-02T10:01:15.786Z,992.31
2018-12-02T10:02:24.446Z,992.33
2018-12-02T10:03:33.125Z,992.31
2018-12-02T10:04:41.808Z,992.34
2018-12-02T10:05:50.501Z,992.37
2018-12-02T10:06:59.168Z,992.32
2018-12-02T10:08:07.838Z,992.35
2018-12-02T10:09:16.503Z,992.36
2018-12-02T10:10:25.176Z,992.37
2018-12-02T10:11:33.853Z,992.32
2018-12-02T10:12:42.524Z,992.34
2018-12-02T10:13:51.209Z,992.31
2018-12-02T10:14:59.882Z,992.35
2018-12-02T10:16:08.812Z,992.34
2018-12-02T10:17:22.524Z,992.36
2018-12-02T10:18:31.199Z,992.34
2018-12-02T10:19:39.869Z,992.33
2018-12-02T10:20:48.548Z,992.36
2018-12-02T10:21:57.217Z,992.34
2018-12-02T10:23:05.890Z,992.27
2018-12-02T10:24:14.570Z,992.27
2018-12-02T10:25:23.254Z,992.3
2018-12-02T10:26:31.928Z,992.3
2018-12-02T10:27:40.603Z,992.27
2018-12-02T10:28:49.289Z,992.22
2018-12-02T10:29:58.210Z,992.27
2018-12-02T10:31:06.886Z,992.26
2018-12-02T10:32:15.556Z,992.26
2018-12-02T10:33:24.243Z,992.24
2018-12-02T10:34:32.957Z,992.25
2018-12-02T10:35:41.625Z,992.25
2018-12-02T10:36:50.297Z,992.21
2018-12-02T10:37:58.980Z,992.21
2018-12-02T10:39:07.653Z,992.26
2018-12-02T10:40:16.328Z,992.19
2018-12-02T10:41:25.010Z,992.18
2018-12-02T10:42:33.693Z,992.17
2018-12-02T10:43:42.363Z,992.17
2018-12-02T10:44:51.047Z,992.16
2018-12-02T10:45:59.720Z,992.14
2018-12-02T10:47:08.391Z,992.11
2018-12-02T10:48:17.071Z,992.14
2018-12-02T10:49:25.752Z,992.12
2018-12-02T10:50:34.428Z,992.12
2018-12-02T10:51:43.097Z,992.13
2018-12-02T10:52:51.784Z,992.15
2018-12-02T10:54:00.463Z,992.17
2018-12-02T10:55:09.136Z,992.12
2018-12-02T10:56:18.070Z,992.15
2018-12-02T10:57:26.784Z,992.09
2018-12-02T10:58:35.456Z,992.13
2018-12-02T10:59:44.133Z,992.08
2018-12-02T11:00:52.811Z,992.14
2018-12-02T11:02:01.487Z,992.1
2018-12-02T11:03:10.166Z,992.13
2018-12-02T11:04:18.847Z,992.11
2018-12-02T11:05:27.520Z,992.04
2018-12-02T11:06:36.374Z,992.1
2018-12-02T11:07:45.110Z,992.07
2018-12-02T11:08:53.787Z,992.07
2018-12-02T11:10:02.471Z,992.07
2018-12-02T11:11:11.137Z,992.13
2018-12-02T11:12:19.816Z,992.15
2018-12-02T11:13:28.486Z,992.07
2018-12-02T11:14:37.177Z,992.05
2018-12-02T11:15:45.842Z,991.96
2018-12-02T11:16:54.519Z,991.97
2018-12-02T11:18:03.192Z,991.97
2018-12-02T11:19:12.390Z,992.01
2018-12-02T11:20:21.066Z,991.99
2018-12-02T11:21:29.736Z,991.98
2018-12-02T11:22:38.666Z,992.01
2018-12-02T11:23:47.602Z,992.07
2018-12-02T11:24:56.285Z,992.04
2018-12-02T11:26:04.950Z,992.04
2018-12-02T11:27:13.622Z,992.06
2018-12-02T11:28:22.285Z,992.03
2018-12-02T11:29:30.969Z,992.04
2018-12-02T11:30:39.651Z,991.99
2018-12-02T11:31:48.331Z,992.01
2018-12-02T11:32:57.004Z,992.01
2018-12-02T11:34:05.687Z,992
2018-12-02T11:35:14.382Z,992.05
2018-12-02T11:36:23.058Z,992.02
2018-12-02T11:37:31.722Z,992.02
2018-12-02T11:38:40.418Z,992.06
2018-12-02T11:39:49.356Z,992.08
2018-12-02T11:40:58.029Z,992.06
2018-12-02T11:42:06.969Z,992.09
2018-12-02T11:43:15.634Z,992.07
2018-12-02T11:44:24.308Z,992.05
2018-12-02T11:45:32.986Z,992.06
2018-12-02T11:46:41.932Z,992.01
2018-12-02T11:47:50.605Z,992.01
2018-12-02T11:48:59.288Z,991.99
2018-12-02T11:50:07.960Z,992.03
2018-12-02T11:51:16.648Z,992.05
2018-12-02T11:52:25.313Z,992.02
2018-12-02T11:53:33.994Z,992.05
2018-12-02T11:54:42.662Z,992.09
2018-12-02T11:55:51.349Z,992.09
2018-12-02T11:57:00.028Z,992.09
2018-12-02T11:58:08.910Z,992.1
2018-12-02T11:59:17.592Z,992.07
2018-12-02T12:00:26.282Z,992.07
2018-12-02T12:01:35.241Z,992.05
2018-12-02T12:02:43.920Z,992.08
2018-12-02T12:03:52.603Z,992.1
2018-12-02T12:05:01.286Z,992.09
2018-12-02T12:06:09.952Z,992.09
2018-12-02T12:07:18.632Z,992.05
2018-12-02T12:08:27.299Z,992.07
2018-12-02T12:09:35.979Z,992.04
2018-12-02T12:10:44.641Z,992.09
2018-12-02T12:11:53.330Z,992.01
2018-12-02T12:13:01.999Z,992.04
2018-12-02T12:14:10.680Z,992.04
2018-12-02T12:15:19.601Z,992.08
2018-12-02T12:16:28.283Z,992.08
2018-12-02T12:17:36.959Z,992.08
2018-12-02T12:18:45.635Z,992.05
2018-12-02T12:19:54.578Z,992.06
2018-12-02T12:21:03.251Z,992.03
2018-12-02T12:22:11.934Z,992.08
2018-12-02T12:23:20.604Z,992.06
2018-12-02T12:24:29.288Z,992.04
2018-12-02T12:25:38.216Z,992.01
2018-12-02T12:26:46.895Z,992.08
2018-12-02T12:27:55.564Z,992.06
2018-12-02T12:29:04.250Z,992.06
2018-12-02T12:30:12.925Z,992.07
2018-12-02T12:31:21.601Z,992.08
2018-12-02T12:32:30.270Z,992.1
2018-12-02T12:33:38.944Z,992.09
2018-12-02T12:34:47.625Z,992.14
2018-12-02T12:35:56.297Z,992.14
2018-12-02T12:37:04.972Z,992.16
2018-12-02T12:38:13.657Z,992.15
2018-12-02T12:39:22.613Z,992.17
2018-12-02T12:40:31.286Z,992.18
2018-12-02T12:41:39.966Z,992.19
2018-12-02T12:42:48.631Z,992.23
2018-12-02T12:43:57.325Z,992.22
2018-12-02T12:45:05.999Z,992.21
2018-12-02T12:46:14.689Z,992.24
2018-12-02T12:47:23.352Z,992.26
2018-12-02T12:48:32.026Z,992.24
2018-12-02T12:49:40.695Z,992.23
2018-12-02T12:50:49.381Z,992.22
2018-12-02T12:51:58.054Z,992.18
2018-12-02T12:53:06.764Z,992.21
2018-12-02T12:54:15.434Z,992.21
2018-12-02T12:55:24.107Z,992.22
2018-12-02T12:56:33.494Z,992.21
2018-12-02T12:57:42.169Z,992.23
2018-12-02T12:58:50.843Z,992.21
2018-12-02T12:59:59.505Z,992.26
2018-12-02T13:01:08.188Z,992.24
2018-12-02T13:02:16.871Z,992.18
2018-12-02T13:03:25.552Z,992.23
2018-12-02T13:04:34.226Z,992.24
2018-12-02T13:05:43.176Z,992.2
2018-12-02T13:06:52.353Z,992.24
2018-12-02T13:08:01.025Z,992.28
2018-12-02T13:09:09.735Z,992.3
2018-12-02T13:10:18.426Z,992.31
2018-12-02T13:11:27.105Z,992.28
2018-12-02T13:12:35.782Z,992.31
2018-12-02T13:13:44.459Z,992.25
2018-12-02T13:14:53.136Z,992.3
2018-12-02T13:16:01.829Z,992.29
2018-12-02T13:17:10.505Z,992.26
2018-12-02T13:18:19.432Z,992.25
2018-12-02T13:19:28.104Z,992.35
2018-12-02T13:20:36.778Z,992.31
2018-12-02T13:21:45.462Z,992.22
2018-12-02T13:22:54.141Z,992.26
2018-12-02T13:24:02.812Z,992.29
2018-12-02T13:25:11.484Z,992.28
2018-12-02T13:26:20.162Z,992.24
2018-12-02T13:27:28.846Z,992.27
2018-12-02T13:28:37.524Z,992.33
2018-12-02T13:29:46.483Z,992.31
2018-12-02T13:30:55.156Z,992.33
2018-12-02T13:32:04.085Z,992.35
2018-12-02T13:33:12.772Z,992.42
2018-12-02T13:34:21.711Z,992.46
2018-12-02T13:35:30.644Z,992.48
2018-12-02T13:36:39.565Z,992.49
2018-12-02T13:37:48.247Z,992.48
2018-12-02T13:38:56.956Z,992.52
2018-12-02T13:40:05.634Z,992.52
2018-12-02T13:41:14.428Z,992.52
2018-12-02T13:42:23.109Z,992.49
2018-12-02T13:43:32.106Z,992.55
2018-12-02T13:44:40.782Z,992.56
2018-12-02T13:45:49.450Z,992.56
2018-12-02T13:46:58.143Z,992.59
2018-12-02T13:48:06.823Z,992.62
2018-12-02T13:49:15.501Z,992.59
2018-12-02T13:50:24.180Z,992.66
2018-12-02T13:51:32.852Z,992.61
2018-12-02T13:52:41.546Z,992.66
2018-12-02T13:53:50.237Z,992.7
2018-12-02T13:54:58.916Z,992.69
2018-12-02T13:56:07.583Z,992.73
2018-12-02T13:57:16.524Z,992.78
2018-12-02T13:58:25.199Z,992.81
2018-12-02T13:59:33.875Z,992.81
2018-12-02T14:00:42.560Z,992.89
2018-12-02T14:01:51.242Z,992.86
2018-12-02T14:02:59.926Z,992.88
2018-12-02T14:04:08.592Z,992.88
2018-12-02T14:05:17.271Z,992.9
2018-12-02T14:06:25.955Z,992.94
2018-12-02T14:07:34.640Z,992.9
2018-12-02T14:08:43.322Z,992.93
2018-12-02T14:09:52.295Z,992.87
2018-12-02T14:11:00.996Z,992.94
2018-12-02T14:12:09.917Z,992.95
2018-12-02T14:13:18.651Z,992.95
2018-12-02T14:14:27.344Z,992.98
2018-12-02T14:15:36.025Z,992.93
2018-12-02T14:16:44.693Z,992.99
2018-12-02T14:17:53.377Z,992.94
2018-12-02T14:19:02.304Z,992.97
2018-12-02T14:20:11.297Z,992.98